createdAt,value
2022-10-18T00:01:45.498Z,80.05
2022-10-18T00:04:18.050Z,79.89
2022-10-18T00:06:50.780Z,79.79
2022-10-18T00:09:23.485Z,79.98
2022-10-18T00:11:56.789Z,79.82
2022-10-18T00:14:29.355Z,80.16
2022-10-18T00:17:03.488Z,80.28
2022-10-18T00:19:35.911Z,80.35
2022-10-18T00:22:08.335Z,80.09
2022-10-18T00:24:40.808Z,80.01
2022-10-18T00:27:13.378Z,79.83
2022-10-18T00:29:46.174Z,79.71
2022-10-18T00:32:19.995Z,79.60
2022-10-18T00:34:52.539Z,79.83
2022-10-18T00:37:25.204Z,79.80
2022-10-18T00:39:57.681Z,80.00
2022-10-18T00:42:32.514Z,80.04
2022-10-18T00:45:26.101Z,80.14
2022-10-18T00:48:02.779Z,80.01
2022-10-18T00:50:35.739Z,80.16
2022-10-18T00:53:12.279Z,79.94
2022-10-18T00:55:45.162Z,80.35
2022-10-18T00:58:20.000Z,80.20
2022-10-18T01:00:52.535Z,80.04
2022-10-18T01:03:26.525Z,80.12
2022-10-18T01:05:59.121Z,80.17
2022-10-18T01:08:50.445Z,80.01
2022-10-18T01:11:41.339Z,80.35
2022-10-18T01:14:26.626Z,80.31
2022-10-18T01:17:02.293Z,80.24
2022-10-18T01:20:12.496Z,80.17
2022-10-18T01:22:48.710Z,80.17
2022-10-18T01:25:33.282Z,80.27
2022-10-18T01:28:16.679Z,80.34
2022-10-18T01:30:58.186Z,80.14
2022-10-18T01:33:37.848Z,80.41
2022-10-18T01:36:19.436Z,80.51
2022-10-18T01:38:54.579Z,80.19
2022-10-18T01:41:29.471Z,80.35
2022-10-18T01:44:05.118Z,80.38
2022-10-18T01:46:41.556Z,80.62
2022-10-18T01:49:14.141Z,80.15
2022-10-18T01:51:46.828Z,80.39
2022-10-18T01:54:24.866Z,80.18
2022-10-18T01:57:01.861Z,80.35
2022-10-18T01:59:46.264Z,80.45
2022-10-18T02:02:36.633Z,80.48
2022-10-18T02:05:18.354Z,80.35
2022-10-18T02:08:12.033Z,80.50
2022-10-18T02:10:51.953Z,80.31
2022-10-18T02:13:29.975Z,80.16
2022-10-18T02:16:26.250Z,80.00
2022-10-18T02:19:05.613Z,80.18
2022-10-18T02:21:40.077Z,80.31
2022-10-18T02:24:14.710Z,80.13
2022-10-18T02:26:47.634Z,80.22
2022-10-18T02:29:20.107Z,80.42
2022-10-18T02:31:59.946Z,80.07
2022-10-18T02:34:39.271Z,80.38
2022-10-18T02:37:12.225Z,80.31
2022-10-18T02:39:48.255Z,80.16
2022-10-18T02:42:20.801Z,80.24
2022-10-18T02:44:53.334Z,80.32
2022-10-18T02:47:25.850Z,80.11
2022-10-18T02:49:59.746Z,80.15
2022-10-18T02:52:32.220Z,79.97
2022-10-18T02:55:06.314Z,80.40
2022-10-18T02:57:38.785Z,79.99
2022-10-18T03:00:12.305Z,79.92
2022-10-18T03:02:44.762Z,80.08
2022-10-18T03:05:18.770Z,80.13
2022-10-18T03:07:51.300Z,80.14
2022-10-18T03:10:23.696Z,79.88
2022-10-18T03:12:56.142Z,80.25
2022-10-18T03:15:28.698Z,80.08
2022-10-18T03:18:01.213Z,80.23
2022-10-18T03:20:35.383Z,80.01
2022-10-18T03:23:07.924Z,80.09
2022-10-18T03:25:42.838Z,80.19
2022-10-18T03:28:18.248Z,80.06
2022-10-18T03:30:50.672Z,80.01
2022-10-18T03:33:23.160Z,80.22
2022-10-18T03:35:57.225Z,80.12
2022-10-18T03:38:29.732Z,80.02
2022-10-18T03:41:02.175Z,80.08
2022-10-18T03:43:34.634Z,80.36
2022-10-18T03:46:07.437Z,79.90
2022-10-18T03:48:39.808Z,79.96
2022-10-18T03:51:13.640Z,80.00
2022-10-18T03:53:46.213Z,79.80
2022-10-18T03:56:18.849Z,80.10
2022-10-18T03:58:51.340Z,79.92
2022-10-18T04:01:23.923Z,80.17
2022-10-18T04:03:56.465Z,79.84
2022-10-18T04:06:30.536Z,79.83
2022-10-18T04:09:05.293Z,80.03
2022-10-18T04:11:40.516Z,80.02
2022-10-18T04:14:13.046Z,79.91
2022-10-18T04:16:45.781Z,79.94
2022-10-18T04:19:18.400Z,79.79
2022-10-18T04:21:52.290Z,79.79
2022-10-18T04:24:24.941Z,80.10
2022-10-18T04:26:57.459Z,79.82
2022-10-18T04:29:29.955Z,80.00
2022-10-18T04:32:02.440Z,80.05
2022-10-18T04:34:34.931Z,79.78
2022-10-18T04:37:09.032Z,79.96
2022-10-18T04:39:41.517Z,79.98
2022-10-18T04:42:14.038Z,79.87
2022-10-18T04:44:46.617Z,79.99
2022-10-18T04:47:19.441Z,79.85
2022-10-18T04:49:52.066Z,79.87
2022-10-18T04:52:25.941Z,79.96
2022-10-18T04:54:58.362Z,79.92
2022-10-18T04:57:31.248Z,80.08
2022-10-18T05:00:04.647Z,79.78
2022-10-18T05:02:37.237Z,80.08
2022-10-18T05:05:11.804Z,79.63
2022-10-18T05:07:48.293Z,79.89
2022-10-18T05:10:20.808Z,79.96
2022-10-18T05:12:53.263Z,79.97
2022-10-18T05:15:25.755Z,80.19
2022-10-18T05:17:58.343Z,80.15
2022-10-18T05:20:30.863Z,80.21
2022-10-18T05:23:04.803Z,80.06
2022-10-18T05:25:39.086Z,79.73
2022-10-18T05:28:34.649Z,79.70
2022-10-18T05:31:06.003Z,80.20
2022-10-18T05:33:38.845Z,79.97
2022-10-18T05:36:11.458Z,79.65
2022-10-18T05:38:45.681Z,79.63
2022-10-18T05:41:18.197Z,79.68
2022-10-18T05:43:50.782Z,79.61
2022-10-18T05:46:23.382Z,79.55
2022-10-18T05:48:55.956Z,79.65
2022-10-18T05:51:28.453Z,79.68
2022-10-18T05:54:02.344Z,79.52
2022-10-18T05:56:34.948Z,79.35
2022-10-18T05:59:12.315Z,79.97
2022-10-18T06:01:45.729Z,79.40
2022-10-18T06:04:18.148Z,79.39
2022-10-18T06:06:50.638Z,79.75
2022-10-18T06:09:24.851Z,79.40
2022-10-18T06:11:57.986Z,79.38
2022-10-18T06:14:30.661Z,79.54
2022-10-18T06:17:03.407Z,79.57
2022-10-18T06:19:36.080Z,79.66
2022-10-18T06:22:08.729Z,80.00
2022-10-18T06:24:42.627Z,79.62
2022-10-18T06:27:15.103Z,79.70
2022-10-18T06:29:47.730Z,79.69
2022-10-18T06:32:20.341Z,79.93
2022-10-18T06:34:52.824Z,80.09
2022-10-18T06:37:25.376Z,79.88
2022-10-18T06:39:59.469Z,80.01
2022-10-18T06:42:32.295Z,80.15
2022-10-18T06:45:05.823Z,80.24
2022-10-18T06:47:38.341Z,80.31
2022-10-18T06:50:11.932Z,80.41
2022-10-18T06:52:44.969Z,80.49
2022-10-18T06:55:18.820Z,80.64
2022-10-18T06:57:51.342Z,80.92
2022-10-18T07:00:24.255Z,80.70
2022-10-18T07:02:58.362Z,80.63
2022-10-18T07:08:09.473Z,80.93
2022-10-18T07:10:43.749Z,81.04
2022-10-18T07:13:33.058Z,81.12
2022-10-18T07:16:08.649Z,81.29
2022-10-18T07:18:43.647Z,81.27
2022-10-18T07:21:18.137Z,81.27
2022-10-18T07:23:52.070Z,81.40
2022-10-18T07:26:27.631Z,81.45
2022-10-18T07:29:02.374Z,81.48
2022-10-18T07:31:35.696Z,81.69
2022-10-18T07:34:10.847Z,81.51
2022-10-18T07:36:43.505Z,81.71
2022-10-18T07:39:16.237Z,81.61
2022-10-18T07:41:50.321Z,81.70
2022-10-18T07:44:22.976Z,81.82
2022-10-18T07:46:55.424Z,81.86
2022-10-18T07:49:28.017Z,82.11
2022-10-18T07:52:00.706Z,81.79
2022-10-18T07:54:33.383Z,81.81
2022-10-18T07:57:07.367Z,82.31
2022-10-18T07:59:40.035Z,81.91
2022-10-18T08:02:12.700Z,82.16
2022-10-18T08:04:45.579Z,82.22
2022-10-18T08:07:18.061Z,81.77
2022-10-18T08:09:50.658Z,81.73
2022-10-18T08:12:24.789Z,82.05
2022-10-18T08:14:57.408Z,82.00
2022-10-18T08:17:33.140Z,82.38
2022-10-18T08:20:38.305Z,82.01
2022-10-18T08:23:57.900Z,82.27
2022-10-18T08:29:26.797Z,82.29
2022-10-18T08:32:01.662Z,82.47
2022-10-18T08:34:34.518Z,82.17
2022-10-18T08:37:07.168Z,82.11
2022-10-18T08:39:39.645Z,82.21
2022-10-18T08:42:21.878Z,82.16
2022-10-18T08:44:56.497Z,82.04
2022-10-18T08:47:35.857Z,82.66
2022-10-18T08:50:15.329Z,82.27
2022-10-18T08:52:53.558Z,82.43
2022-10-18T08:55:31.063Z,82.47
2022-10-18T08:58:05.552Z,82.24
2022-10-18T09:00:44.992Z,82.68
2022-10-18T09:03:34.181Z,82.62
2022-10-18T09:06:19.868Z,82.71
2022-10-18T09:09:06.904Z,82.32
2022-10-18T09:11:52.144Z,82.77
2022-10-18T09:14:59.545Z,81.91
2022-10-18T09:17:47.317Z,82.31
2022-10-18T09:20:26.326Z,82.62
2022-10-18T09:23:12.526Z,82.92
2022-10-18T09:25:47.286Z,83.13
2022-10-18T09:28:31.568Z,82.82
2022-10-18T09:31:09.631Z,83.02
2022-10-18T09:33:50.530Z,83.27
2022-10-18T09:36:26.276Z,83.14
2022-10-18T09:39:02.466Z,82.68
2022-10-18T09:41:41.276Z,83.14
2022-10-18T09:44:19.828Z,83.47
2022-10-18T09:46:57.937Z,82.89
2022-10-18T09:49:37.131Z,83.04
2022-10-18T09:52:18.999Z,83.23
2022-10-18T09:54:56.270Z,82.95
2022-10-18T09:57:34.925Z,82.86
2022-10-18T10:00:16.938Z,83.21
2022-10-18T10:02:49.469Z,83.37
2022-10-18T10:05:23.393Z,83.29
2022-10-18T10:08:00.029Z,83.22
2022-10-18T10:10:33.749Z,83.00
2022-10-18T10:13:13.806Z,83.41
2022-10-18T10:15:52.239Z,82.68
2022-10-18T10:18:28.492Z,83.32
2022-10-18T10:21:05.835Z,83.21
2022-10-18T10:23:44.812Z,82.78
2022-10-18T10:26:23.281Z,83.12
2022-10-18T10:28:55.814Z,83.05
2022-10-18T10:31:30.891Z,82.81
2022-10-18T10:34:05.104Z,82.53
2022-10-18T10:36:48.395Z,82.85
2022-10-18T10:39:23.060Z,83.08
2022-10-18T10:41:58.017Z,83.24
2022-10-18T10:44:34.388Z,83.28
2022-10-18T10:47:06.934Z,83.16
2022-10-18T10:49:44.001Z,82.72
2022-10-18T10:52:28.615Z,83.28
2022-10-18T10:55:30.466Z,83.19
2022-10-18T10:57:56.772Z,82.90
2022-10-18T11:00:38.665Z,83.52
2022-10-18T11:03:27.886Z,83.47
2022-10-18T11:06:02.219Z,83.73
2022-10-18T11:08:42.042Z,83.61
2022-10-18T11:11:22.892Z,83.39
2022-10-18T11:14:20.962Z,83.56
2022-10-18T11:17:06.935Z,83.81
2022-10-18T11:19:50.088Z,84.06
2022-10-18T11:22:26.238Z,83.79
2022-10-18T11:25:01.957Z,83.69
2022-10-18T11:27:41.496Z,83.78
2022-10-18T11:30:37.417Z,84.02
2022-10-18T11:33:29.516Z,83.15
2022-10-18T11:36:15.394Z,83.90
2022-10-18T11:38:56.477Z,83.23
2022-10-18T11:41:38.427Z,83.72
2022-10-18T11:44:19.509Z,83.46
2022-10-18T11:47:01.511Z,83.66
2022-10-18T11:49:57.187Z,83.07
2022-10-18T11:52:36.570Z,82.66
2022-10-18T11:55:32.783Z,82.31
2022-10-18T11:58:23.524Z,82.57
2022-10-18T12:01:02.038Z,82.68
2022-10-18T12:03:43.929Z,82.59
2022-10-18T12:06:20.601Z,82.39
2022-10-18T12:08:57.740Z,82.19
2022-10-18T12:11:33.318Z,82.35
2022-10-18T12:14:20.039Z,81.99
2022-10-18T12:17:27.956Z,82.24
2022-10-18T12:19:56.255Z,81.80
2022-10-18T12:22:35.084Z,82.32
2022-10-18T12:25:13.371Z,82.01
2022-10-18T12:27:53.864Z,82.65
2022-10-18T12:30:36.602Z,82.10
2022-10-18T12:33:28.875Z,81.84
2022-10-18T12:36:13.058Z,82.08
2022-10-18T12:38:48.230Z,82.20
2022-10-18T12:41:24.749Z,82.20
2022-10-18T12:44:01.769Z,82.23
2022-10-18T12:46:46.804Z,82.31
2022-10-18T12:49:24.795Z,82.19
2022-10-18T12:51:59.804Z,81.92
2022-10-18T12:54:34.766Z,81.35
2022-10-18T12:57:23.417Z,82.39
2022-10-18T12:59:56.053Z,82.22
2022-10-18T13:02:32.014Z,81.75
2022-10-18T13:05:49.013Z,81.39
2022-10-18T13:08:42.076Z,81.43
2022-10-18T13:11:38.545Z,81.01
2022-10-18T13:14:44.073Z,81.38
2022-10-18T13:17:35.484Z,81.52
2022-10-18T13:20:26.440Z,81.30
2022-10-18T13:23:13.063Z,81.14
2022-10-18T13:26:01.041Z,80.90
2022-10-18T13:28:41.213Z,80.94
2022-10-18T13:31:22.299Z,81.22
2022-10-18T13:33:56.351Z,81.01
2022-10-18T13:36:32.770Z,80.94
2022-10-18T13:39:06.525Z,80.98
2022-10-18T13:42:12.601Z,80.61
2022-10-18T13:44:46.607Z,80.96
2022-10-18T13:47:39.714Z,80.87
2022-10-18T13:53:35.507Z,80.61
2022-10-18T13:56:43.204Z,80.55
2022-10-18T13:59:27.576Z,81.02
2022-10-18T14:02:50.317Z,80.65
2022-10-18T14:05:50.590Z,80.52
2022-10-18T14:08:29.495Z,80.63
2022-10-18T14:11:06.201Z,80.63
2022-10-18T14:13:45.239Z,80.38
2022-10-18T14:16:30.285Z,80.11
2022-10-18T14:19:18.040Z,80.67
2022-10-18T14:21:58.621Z,80.42
2022-10-18T14:24:31.713Z,80.67
2022-10-18T14:27:21.840Z,80.50
2022-10-18T14:30:09.875Z,80.45
2022-10-18T14:32:45.615Z,80.55
2022-10-18T14:35:32.011Z,80.57
2022-10-18T14:38:13.908Z,80.40
2022-10-18T14:40:46.407Z,79.93
2022-10-18T14:43:20.431Z,80.31
2022-10-18T14:45:55.515Z,80.57
2022-10-18T14:48:28.138Z,80.56
2022-10-18T14:51:06.147Z,80.65
2022-10-18T14:53:40.642Z,80.42
2022-10-18T14:56:22.298Z,80.46
2022-10-18T14:58:56.394Z,80.43
2022-10-18T15:01:31.754Z,80.77
2022-10-18T15:04:08.448Z,80.58
2022-10-18T15:06:43.402Z,80.61
2022-10-18T15:09:22.365Z,80.40
2022-10-18T15:11:57.954Z,80.49
2022-10-18T15:14:31.203Z,80.59
2022-10-18T15:17:08.716Z,80.50
2022-10-18T15:19:55.241Z,80.41
2022-10-18T15:22:32.893Z,80.58
2022-10-18T15:25:16.792Z,80.49
2022-10-18T15:27:51.459Z,80.59
2022-10-18T15:30:27.718Z,80.69
2022-10-18T15:33:02.126Z,80.52
2022-10-18T15:35:36.894Z,80.60
2022-10-18T15:38:16.060Z,80.70
2022-10-18T15:40:50.173Z,80.90
2022-10-18T15:43:36.248Z,80.74
2022-10-18T15:46:31.106Z,80.45
2022-10-18T15:49:36.612Z,80.31
2022-10-18T15:52:38.907Z,80.17
2022-10-18T15:55:46.501Z,80.07
2022-10-18T15:58:23.749Z,80.38
2022-10-18T16:01:01.381Z,80.54
2022-10-18T16:03:34.822Z,80.38
2022-10-18T16:06:11.383Z,80.75
2022-10-18T16:08:49.908Z,80.57
2022-10-18T16:11:24.136Z,80.43
2022-10-18T16:14:00.401Z,80.63
2022-10-18T16:16:33.892Z,80.69
2022-10-18T16:19:06.443Z,80.86
2022-10-18T16:21:39.289Z,80.79
2022-10-18T16:24:11.845Z,80.97
2022-10-18T16:26:44.481Z,80.60
2022-10-18T16:29:21.919Z,80.56
2022-10-18T16:31:58.205Z,80.83
2022-10-18T16:34:32.311Z,80.66
2022-10-18T16:37:04.920Z,81.06
2022-10-18T16:39:37.334Z,80.86
2022-10-18T16:42:09.814Z,80.75
2022-10-18T16:44:45.369Z,80.75
2022-10-18T16:47:18.220Z,81.14
2022-10-18T16:49:50.746Z,80.64
2022-10-18T16:52:23.195Z,81.05
2022-10-18T16:54:55.831Z,80.68
2022-10-18T16:57:28.409Z,80.57
2022-10-18T17:00:02.473Z,80.40
2022-10-18T17:02:36.487Z,80.47
2022-10-18T17:05:09.486Z,80.34
2022-10-18T17:07:42.370Z,80.49
2022-10-18T17:10:16.798Z,80.68
2022-10-18T17:12:49.329Z,80.45
2022-10-18T17:15:23.291Z,80.63
2022-10-18T17:17:56.180Z,80.88
2022-10-18T17:20:28.751Z,80.36
2022-10-18T17:23:01.241Z,80.97
2022-10-18T17:25:33.782Z,80.57
2022-10-18T17:28:07.518Z,81.01
2022-10-18T17:30:41.831Z,80.95
2022-10-18T17:33:15.106Z,80.51
2022-10-18T17:35:48.361Z,80.77
2022-10-18T17:38:21.836Z,80.43
2022-10-18T17:40:54.650Z,80.50
2022-10-18T17:43:27.205Z,80.93
2022-10-18T17:46:01.247Z,80.48
2022-10-18T17:48:34.374Z,80.95
2022-10-18T17:51:07.906Z,80.65
2022-10-18T17:53:40.455Z,81.02
2022-10-18T17:56:13.821Z,80.56
2022-10-18T17:58:53.416Z,80.25
2022-10-18T18:01:27.343Z,80.17
2022-10-18T18:04:01.926Z,80.44
2022-10-18T18:06:36.205Z,80.44
2022-10-18T18:09:11.330Z,80.82
2022-10-18T18:11:44.902Z,80.48
2022-10-18T18:14:17.866Z,80.38
2022-10-18T18:16:51.930Z,80.13
2022-10-18T18:19:24.586Z,80.01
2022-10-18T18:21:58.817Z,80.20
2022-10-18T18:24:32.099Z,80.24
2022-10-18T18:27:05.036Z,80.18
2022-10-18T18:29:37.841Z,80.24
2022-10-18T18:32:11.763Z,80.16
2022-10-18T18:34:44.351Z,80.52
2022-10-18T18:37:16.914Z,80.71
2022-10-18T18:39:49.740Z,80.54
2022-10-18T18:42:22.698Z,80.78
2022-10-18T18:44:55.324Z,80.61
2022-10-18T18:47:29.411Z,80.36
2022-10-18T18:50:02.603Z,80.49
2022-10-18T18:52:36.005Z,80.62
2022-10-18T18:55:09.327Z,79.96
2022-10-18T18:57:42.017Z,79.98
2022-10-18T19:00:15.863Z,79.80
2022-10-18T19:02:50.905Z,80.04
2022-10-18T19:05:25.830Z,79.76
2022-10-18T19:07:59.496Z,79.97
2022-10-18T19:10:32.428Z,79.59
2022-10-18T19:13:05.127Z,79.79
2022-10-18T19:15:37.848Z,79.43
2022-10-18T19:18:12.028Z,79.40
2022-10-18T19:20:44.685Z,79.51
2022-10-18T19:23:17.263Z,79.44
2022-10-18T19:25:49.832Z,79.79
2022-10-18T19:28:22.389Z,79.44
2022-10-18T19:30:56.323Z,79.38
2022-10-18T19:33:41.433Z,79.67
2022-10-18T19:36:23.052Z,79.13
2022-10-18T19:38:55.974Z,79.19
2022-10-18T19:41:28.958Z,79.41
2022-10-18T19:44:01.623Z,79.34
2022-10-18T19:46:34.343Z,79.53
2022-10-18T19:49:08.448Z,79.13
2022-10-18T19:51:41.752Z,79.07
2022-10-18T19:54:15.379Z,79.09
2022-10-18T19:56:48.516Z,78.66
2022-10-18T19:59:23.028Z,79.18
2022-10-18T20:01:56.095Z,79.10
2022-10-18T20:04:36.109Z,79.14
2022-10-18T20:07:08.603Z,79.13
2022-10-18T20:09:41.337Z,79.45
2022-10-18T20:12:13.829Z,79.46
2022-10-18T20:14:47.690Z,79.48
2022-10-18T20:17:21.061Z,79.23
2022-10-18T20:19:55.037Z,79.30
2022-10-18T20:22:27.769Z,79.15
2022-10-18T20:25:00.269Z,79.56
2022-10-18T20:27:32.923Z,79.30
2022-10-18T20:30:09.018Z,79.42
2022-10-18T20:32:44.120Z,79.87
2022-10-18T20:35:18.142Z,79.51
2022-10-18T20:37:50.678Z,79.30
2022-10-18T20:40:23.270Z,79.42
2022-10-18T20:42:56.756Z,79.67
2022-10-18T20:45:30.612Z,79.90
2022-10-18T20:48:03.037Z,80.03
2022-10-18T20:50:40.972Z,79.58
2022-10-18T20:53:13.748Z,79.76
2022-10-18T20:55:46.247Z,79.74
2022-10-18T20:58:18.769Z,79.84
2022-10-18T21:00:51.246Z,80.38
2022-10-18T21:03:23.811Z,80.26
2022-10-18T21:05:57.638Z,80.02
2022-10-18T21:08:30.051Z,79.93
2022-10-18T21:11:02.634Z,79.70
2022-10-18T21:13:35.583Z,80.26
2022-10-18T21:16:08.251Z,80.43
2022-10-18T21:18:40.623Z,80.56
2022-10-18T21:21:16.608Z,80.01
2022-10-18T21:23:49.298Z,80.05
2022-10-18T21:26:23.444Z,80.43
2022-10-18T21:28:58.868Z,80.44
2022-10-18T21:31:33.074Z,80.01
2022-10-18T21:34:07.709Z,80.60
2022-10-18T21:36:43.287Z,80.23
2022-10-18T21:39:18.004Z,80.70
2022-10-18T21:41:51.290Z,80.22
2022-10-18T21:44:23.955Z,80.59
2022-10-18T21:46:57.072Z,80.12
2022-10-18T21:49:30.528Z,80.30
2022-10-18T21:52:05.493Z,79.90
2022-10-18T21:54:38.007Z,80.06
2022-10-18T21:57:10.474Z,79.73
2022-10-18T21:59:42.924Z,79.74
2022-10-18T22:02:15.672Z,79.79
2022-10-18T22:04:49.857Z,80.57
2022-10-18T22:07:23.751Z,80.06
2022-10-18T22:09:56.273Z,79.81
2022-10-18T22:12:28.905Z,80.18
2022-10-18T22:15:02.902Z,80.02
2022-10-18T22:17:35.915Z,80.50
2022-10-18T22:20:10.347Z,80.31
2022-10-18T22:22:44.473Z,80.37
2022-10-18T22:25:17.228Z,80.63
2022-10-18T22:27:49.694Z,80.05
2022-10-18T22:30:22.272Z,80.22
2022-10-18T22:32:54.762Z,80.46
2022-10-18T22:35:27.427Z,80.82
2022-10-18T22:38:01.289Z,80.91
2022-10-18T22:40:33.810Z,80.82
2022-10-18T22:43:06.287Z,80.49
2022-10-18T22:45:39.419Z,80.15
2022-10-18T22:48:11.863Z,80.18
2022-10-18T22:50:44.382Z,80.06
2022-10-18T22:53:18.308Z,80.12
2022-10-18T22:55:51.741Z,80.06
2022-10-18T22:58:24.184Z,80.80
2022-10-18T23:01:01.272Z,80.92
2022-10-18T23:03:34.252Z,80.42
2022-10-18T23:06:19.623Z,80.95
2022-10-18T23:08:56.031Z,80.83
2022-10-18T23:11:29.483Z,81.20
2022-10-18T23:14:03.914Z,81.20
2022-10-18T23:16:36.776Z,81.14
2022-10-18T23:19:14.570Z,80.94
2022-10-18T23:21:47.108Z,81.04
2022-10-18T23:24:21.002Z,81.04
2022-10-18T23:26:53.573Z,80.96
2022-10-18T23:29:26.168Z,81.32
2022-10-18T23:31:58.642Z,81.08
2022-10-18T23:34:31.111Z,80.72
2022-10-18T23:37:03.623Z,80.37
2022-10-18T23:39:37.555Z,80.50
2022-10-18T23:42:10.029Z,80.58
2022-10-18T23:44:42.652Z,81.22
2022-10-18T23:47:15.922Z,80.93
2022-10-18T23:49:48.323Z,80.99
2022-10-18T23:52:20.739Z,81.23
2022-10-18T23:54:54.662Z,81.26
2022-10-18T23:57:27.228Z,81.46
2022-10-18T23:59:59.653Z,80.72
